sensor_id;sensor_type;location;lat;lon;timestamp;pressure;altitude;pressure_sealevel;temperature;humidity
60832;BME280;46665;51.558;-0.448;2023-03-03T00:00:22;102225.47;;;3.89;97.94
60832;BME280;46665;51.558;-0.448;2023-03-03T00:03:07;102232.53;;;3.90;97.29
60832;BME280;46665;51.558;-0.448;2023-03-03T00:05:52;102227.75;;;3.86;97.57
60832;BME280;46665;51.558;-0.448;2023-03-03T00:08:39;102231.25;;;3.86;97.11
60832;BME280;46665;51.558;-0.448;2023-03-03T00:11:23;102215.50;;;3.83;97.53
60832;BME280;46665;51.558;-0.448;2023-03-03T00:14:21;102211.19;;;3.89;96.85
60832;BME280;46665;51.558;-0.448;2023-03-03T00:17:18;102220.94;;;3.90;97.38
60832;BME280;46665;51.558;-0.448;2023-03-03T00:23:29;102222.78;;;3.89;96.80
60832;BME280;46665;51.558;-0.448;2023-03-03T00:26:20;102223.88;;;3.95;96.70
60832;BME280;46665;51.558;-0.448;2023-03-03T00:29:33;102232.78;;;3.96;97.15
60832;BME280;46665;51.558;-0.448;2023-03-03T00:32:40;102229.25;;;3.95;96.62
60832;BME280;46665;51.558;-0.448;2023-03-03T00:35:27;102229.88;;;3.97;97.20
60832;BME280;46665;51.558;-0.448;2023-03-03T00:38:16;102231.56;;;3.98;97.23
60832;BME280;46665;51.558;-0.448;2023-03-03T00:41:00;102232.19;;;4.00;96.96
60832;BME280;46665;51.558;-0.448;2023-03-03T00:43:45;102233.03;;;4.01;96.70
60832;BME280;46665;51.558;-0.448;2023-03-03T00:46:29;102243.56;;;4.02;96.53
60832;BME280;46665;51.558;-0.448;2023-03-03T00:49:23;102237.19;;;4.03;96.90
60832;BME280;46665;51.558;-0.448;2023-03-03T00:52:17;102239.47;;;4.06;96.71
60832;BME280;46665;51.558;-0.448;2023-03-03T00:55:02;102234.25;;;4.05;96.47
60832;BME280;46665;51.558;-0.448;2023-03-03T00:57:47;102235.13;;;4.05;96.18
60832;BME280;46665;51.558;-0.448;2023-03-03T01:00:32;102238.81;;;4.04;96.67
60832;BME280;46665;51.558;-0.448;2023-03-03T01:03:22;102245.03;;;4.05;96.48
60832;BME280;46665;51.558;-0.448;2023-03-03T01:06:07;102244.22;;;4.04;96.56
60832;BME280;46665;51.558;-0.448;2023-03-03T01:08:51;102245.50;;;4.08;96.43
60832;BME280;46665;51.558;-0.448;2023-03-03T01:11:51;102252.09;;;4.06;96.40
60832;BME280;46665;51.558;-0.448;2023-03-03T01:14:35;102248.59;;;4.05;95.34
60832;BME280;46665;51.558;-0.448;2023-03-03T01:17:19;102245.25;;;4.03;95.48
60832;BME280;46665;51.558;-0.448;2023-03-03T01:20:04;102256.66;;;4.05;95.37
60832;BME280;46665;51.558;-0.448;2023-03-03T01:22:48;102259.78;;;4.09;95.94
60832;BME280;46665;51.558;-0.448;2023-03-03T01:25:32;102255.44;;;4.08;95.20
60832;BME280;46665;51.558;-0.448;2023-03-03T01:28:16;102262.47;;;4.09;95.58
60832;BME280;46665;51.558;-0.448;2023-03-03T01:31:01;102259.38;;;4.05;95.04
60832;BME280;46665;51.558;-0.448;2023-03-03T01:33:46;102268.69;;;4.09;95.70
60832;BME280;46665;51.558;-0.448;2023-03-03T01:36:30;102258.75;;;4.10;95.38
60832;BME280;46665;51.558;-0.448;2023-03-03T01:39:14;102262.28;;;4.10;95.63
60832;BME280;46665;51.558;-0.448;2023-03-03T01:41:58;102260.63;;;4.09;95.25
60832;BME280;46665;51.558;-0.448;2023-03-03T01:44:45;102251.72;;;4.09;95.07
60832;BME280;46665;51.558;-0.448;2023-03-03T01:47:32;102261.25;;;4.11;94.48
60832;BME280;46665;51.558;-0.448;2023-03-03T01:50:29;102255.03;;;4.11;93.86
60832;BME280;46665;51.558;-0.448;2023-03-03T01:53:18;102256.69;;;4.12;93.78
60832;BME280;46665;51.558;-0.448;2023-03-03T01:56:04;102251.31;;;4.12;93.54
60832;BME280;46665;51.558;-0.448;2023-03-03T01:58:58;102258.16;;;4.15;93.90
60832;BME280;46665;51.558;-0.448;2023-03-03T02:01:44;102249.66;;;4.11;94.12
60832;BME280;46665;51.558;-0.448;2023-03-03T02:04:29;102255.88;;;4.11;94.00
60832;BME280;46665;51.558;-0.448;2023-03-03T02:07:15;102248.44;;;4.13;93.63
60832;BME280;46665;51.558;-0.448;2023-03-03T02:10:13;102242.00;;;4.15;93.08
60832;BME280;46665;51.558;-0.448;2023-03-03T02:12:57;102228.50;;;4.08;93.75
60832;BME280;46665;51.558;-0.448;2023-03-03T02:15:42;102244.03;;;4.12;93.54
60832;BME280;46665;51.558;-0.448;2023-03-03T02:18:27;102248.81;;;4.10;93.63
60832;BME280;46665;51.558;-0.448;2023-03-03T02:21:14;102245.09;;;4.11;93.15
60832;BME280;46665;51.558;-0.448;2023-03-03T02:27:07;102243.44;;;4.10;93.79
60832;BME280;46665;51.558;-0.448;2023-03-03T02:29:51;102248.59;;;4.12;93.25
60832;BME280;46665;51.558;-0.448;2023-03-03T02:32:35;102251.53;;;4.10;93.38
60832;BME280;46665;51.558;-0.448;2023-03-03T02:35:37;102246.97;;;4.11;94.18
60832;BME280;46665;51.558;-0.448;2023-03-03T02:38:28;102247.38;;;4.08;93.84
60832;BME280;46665;51.558;-0.448;2023-03-03T02:41:35;102244.25;;;4.11;93.68
60832;BME280;46665;51.558;-0.448;2023-03-03T02:44:24;102243.22;;;4.12;93.95
60832;BME280;46665;51.558;-0.448;2023-03-03T02:47:08;102255.47;;;4.15;94.24
60832;BME280;46665;51.558;-0.448;2023-03-03T02:49:52;102253.00;;;4.13;94.27
60832;BME280;46665;51.558;-0.448;2023-03-03T02:52:36;102256.09;;;4.17;93.36
60832;BME280;46665;51.558;-0.448;2023-03-03T02:55:20;102259.63;;;4.17;94.72
60832;BME280;46665;51.558;-0.448;2023-03-03T02:58:04;102246.75;;;4.12;94.47
60832;BME280;46665;51.558;-0.448;2023-03-03T03:00:48;102249.66;;;4.11;94.22
60832;BME280;46665;51.558;-0.448;2023-03-03T03:03:32;102253.00;;;4.13;94.82
60832;BME280;46665;51.558;-0.448;2023-03-03T03:06:16;102258.75;;;4.10;95.10
60832;BME280;46665;51.558;-0.448;2023-03-03T03:09:00;102256.91;;;4.10;94.87
60832;BME280;46665;51.558;-0.448;2023-03-03T03:11:44;102256.91;;;4.10;94.93
60832;BME280;46665;51.558;-0.448;2023-03-03T03:14:28;102248.19;;;4.08;95.07
60832;BME280;46665;51.558;-0.448;2023-03-03T03:17:12;102261.25;;;4.11;94.96
60832;BME280;46665;51.558;-0.448;2023-03-03T03:19:56;102249.66;;;4.11;94.83
60832;BME280;46665;51.558;-0.448;2023-03-03T03:22:40;102261.25;;;4.11;94.91
60832;BME280;46665;51.558;-0.448;2023-03-03T03:25:24;102261.44;;;4.10;94.80
60832;BME280;46665;51.558;-0.448;2023-03-03T03:28:08;102265.19;;;4.09;94.63
60832;BME280;46665;51.558;-0.448;2023-03-03T03:30:52;102258.31;;;4.06;95.46
60832;BME280;46665;51.558;-0.448;2023-03-03T03:33:36;102255.63;;;4.06;94.70
60832;BME280;46665;51.558;-0.448;2023-03-03T03:36:21;102254.22;;;4.10;95.41
60832;BME280;46665;51.558;-0.448;2023-03-03T03:39:05;102263.13;;;4.11;95.17
60832;BME280;46665;51.558;-0.448;2023-03-03T03:41:49;102259.16;;;4.07;95.61
60832;BME280;46665;51.558;-0.448;2023-03-03T03:44:33;102260.63;;;4.09;95.29
60832;BME280;46665;51.558;-0.448;2023-03-03T03:47:17;102257.03;;;4.02;95.49
60832;BME280;46665;51.558;-0.448;2023-03-03T03:50:01;102262.44;;;4.02;95.88
60832;BME280;46665;51.558;-0.448;2023-03-03T03:52:44;102262.84;;;3.99;96.33
60832;BME280;46665;51.558;-0.448;2023-03-03T03:55:29;102266.34;;;4.00;95.75
60832;BME280;46665;51.558;-0.448;2023-03-03T03:58:13;102267.00;;;4.02;95.71
60832;BME280;46665;51.558;-0.448;2023-03-03T04:01:03;102269.50;;;4.03;95.45
60832;BME280;46665;51.558;-0.448;2023-03-03T04:03:48;102265.13;;;4.02;96.02
60832;BME280;46665;51.558;-0.448;2023-03-03T04:06:32;102265.75;;;4.04;95.37
60832;BME280;46665;51.558;-0.448;2023-03-03T04:09:16;102265.97;;;4.03;95.46
60832;BME280;46665;51.558;-0.448;2023-03-03T04:12:00;102271.16;;;4.04;95.12
60832;BME280;46665;51.558;-0.448;2023-03-03T04:14:44;102263.06;;;4.04;95.50
60832;BME280;46665;51.558;-0.448;2023-03-03T04:17:28;102268.47;;;4.04;95.60
60832;BME280;46665;51.558;-0.448;2023-03-03T04:20:14;102269.75;;;4.08;95.34
60832;BME280;46665;51.558;-0.448;2023-03-03T04:22:58;102285.25;;;4.06;95.05
60832;BME280;46665;51.558;-0.448;2023-03-03T04:25:42;102263.91;;;4.05;95.91
60832;BME280;46665;51.558;-0.448;2023-03-03T04:28:28;102274.31;;;4.08;95.29
60832;BME280;46665;51.558;-0.448;2023-03-03T04:31:12;102275.31;;;4.07;95.04
60832;BME280;46665;51.558;-0.448;2023-03-03T04:33:56;102275.31;;;4.07;95.43
60832;BME280;46665;51.558;-0.448;2023-03-03T04:36:40;102270.75;;;4.07;95.77
60832;BME280;46665;51.558;-0.448;2023-03-03T04:39:24;102274.50;;;4.06;95.46
60832;BME280;46665;51.558;-0.448;2023-03-03T04:42:10;102274.09;;;4.09;95.28
60832;BME280;46665;51.558;-0.448;2023-03-03T04:44:54;102272.44;;;4.08;95.66
60832;BME280;46665;51.558;-0.448;2023-03-03T04:47:38;102286.53;;;4.10;95.46
60832;BME280;46665;51.558;-0.448;2023-03-03T04:50:22;102276.78;;;4.09;95.05
60832;BME280;46665;51.558;-0.448;2023-03-03T04:53:06;102272.44;;;4.08;95.24
60832;BME280;46665;51.558;-0.448;2023-03-03T04:55:52;102277.00;;;4.08;94.88
60832;BME280;46665;51.558;-0.448;2023-03-03T04:58:36;102283.84;;;4.10;95.80
60832;BME280;46665;51.558;-0.448;2023-03-03T05:01:20;102275.78;;;4.10;95.36
60832;BME280;46665;51.558;-0.448;2023-03-03T05:04:04;102285.50;;;4.11;95.57
60832;BME280;46665;51.558;-0.448;2023-03-03T05:06:48;102278.69;;;4.16;94.40
60832;BME280;46665;51.558;-0.448;2023-03-03T05:09:32;102282.84;;;4.18;94.45
60832;BME280;46665;51.558;-0.448;2023-03-03T05:12:16;102282.22;;;4.16;94.83
60832;BME280;46665;51.558;-0.448;2023-03-03T05:15:00;102284.91;;;4.16;94.85
60832;BME280;46665;51.558;-0.448;2023-03-03T05:17:44;102279.06;;;4.12;94.68
60832;BME280;46665;51.558;-0.448;2023-03-03T05:20:28;102284.09;;;4.16;94.79
60832;BME280;46665;51.558;-0.448;2023-03-03T05:23:12;102280.34;;;4.17;94.94
60832;BME280;46665;51.558;-0.448;2023-03-03T05:25:56;102288.25;;;4.18;94.67
60832;BME280;46665;51.558;-0.448;2023-03-03T05:28:40;102276.63;;;4.18;95.30
60832;BME280;46665;51.558;-0.448;2023-03-03T05:31:24;102284.50;;;4.19;95.43
60832;BME280;46665;51.558;-0.448;2023-03-03T05:34:10;102273.91;;;4.18;95.02
60832;BME280;46665;51.558;-0.448;2023-03-03T05:36:53;102279.53;;;4.16;95.76
60832;BME280;46665;51.558;-0.448;2023-03-03T05:39:38;102282.41;;;4.15;94.79
60832;BME280;46665;51.558;-0.448;2023-03-03T05:42:21;102280.53;;;4.15;94.63
60832;BME280;46665;51.558;-0.448;2023-03-03T05:45:06;102275.38;;;4.13;94.63
60832;BME280;46665;51.558;-0.448;2023-03-03T05:47:50;102282.63;;;4.13;94.36
60832;BME280;46665;51.558;-0.448;2023-03-03T05:50:36;102277.00;;;4.15;94.58
60832;BME280;46665;51.558;-0.448;2023-03-03T05:53:21;102280.53;;;4.15;95.03
60832;BME280;46665;51.558;-0.448;2023-03-03T05:56:05;102272.66;;;4.13;94.64
60832;BME280;46665;51.558;-0.448;2023-03-03T05:58:49;102274.31;;;4.15;94.57
60832;BME280;46665;51.558;-0.448;2023-03-03T06:01:33;102284.69;;;4.18;94.61
60832;BME280;46665;51.558;-0.448;2023-03-03T06:04:17;102265.41;;;4.14;94.42
60832;BME280;46665;51.558;-0.448;2023-03-03T06:07:01;102276.84;;;4.16;94.77
60832;BME280;46665;51.558;-0.448;2023-03-03T06:09:45;102276.00;;;4.16;94.64
60832;BME280;46665;51.558;-0.448;2023-03-03T06:12:29;102267.91;;;4.16;94.40
60832;BME280;46665;51.558;-0.448;2023-03-03T06:15:13;102274.31;;;4.15;94.55
60832;BME280;46665;51.558;-0.448;2023-03-03T06:17:57;102269.16;;;4.13;95.03
60832;BME280;46665;51.558;-0.448;2023-03-03T06:20:41;102271.00;;;4.12;95.32
60832;BME280;46665;51.558;-0.448;2023-03-03T06:23:25;102271.38;;;4.09;95.54
60832;BME280;46665;51.558;-0.448;2023-03-03T06:26:10;102270.38;;;4.10;95.76
60832;BME280;46665;51.558;-0.448;2023-03-03T06:28:53;102268.91;;;4.08;95.99
60832;BME280;46665;51.558;-0.448;2023-03-03T06:31:38;102274.09;;;4.09;95.69
60832;BME280;46665;51.558;-0.448;2023-03-03T06:34:22;102275.78;;;4.10;96.44
60832;BME280;46665;51.558;-0.448;2023-03-03T06:37:08;102285.69;;;4.10;96.34
60832;BME280;46665;51.558;-0.448;2023-03-03T06:39:51;102277.81;;;4.08;96.53
60832;BME280;46665;51.558;-0.448;2023-03-03T06:42:35;102279.28;;;4.11;96.44
60832;BME280;46665;51.558;-0.448;2023-03-03T06:45:19;102278.25;;;4.12;97.21
60832;BME280;46665;51.558;-0.448;2023-03-03T06:48:03;102286.53;;;4.10;97.08
60832;BME280;46665;51.558;-0.448;2023-03-03T06:50:48;102294.81;;;4.09;97.21
60832;BME280;46665;51.558;-0.448;2023-03-03T06:53:32;102285.25;;;4.06;97.46
60832;BME280;46665;51.558;-0.448;2023-03-03T06:56:17;102296.69;;;4.08;97.03
60832;BME280;46665;51.558;-0.448;2023-03-03T06:59:04;102301.25;;;4.08;96.96
60832;BME280;46665;51.558;-0.448;2023-03-03T07:01:49;102306.00;;;4.12;96.76
60832;BME280;46665;51.558;-0.448;2023-03-03T07:04:34;102307.88;;;4.12;96.43
60832;BME280;46665;51.558;-0.448;2023-03-03T07:07:20;102301.47;;;4.13;96.44
60832;BME280;46665;51.558;-0.448;2023-03-03T07:10:15;102299.78;;;4.12;96.91
60832;BME280;46665;51.558;-0.448;2023-03-03T07:13:18;102306.47;;;4.16;96.99
60832;BME280;46665;51.558;-0.448;2023-03-03T07:16:11;102299.41;;;4.15;96.50
60832;BME280;46665;51.558;-0.448;2023-03-03T07:18:59;102301.91;;;4.17;96.42
60832;BME280;46665;51.558;-0.448;2023-03-03T07:21:49;102311.47;;;4.19;96.62
60832;BME280;46665;51.558;-0.448;2023-03-03T07:24:36;102322.03;;;4.21;96.89
60832;BME280;46665;51.558;-0.448;2023-03-03T07:27:28;102310.00;;;4.17;97.33
60832;BME280;46665;51.558;-0.448;2023-03-03T07:30:26;102312.09;;;4.21;97.32
60832;BME280;46665;51.558;-0.448;2023-03-03T07:33:26;102315.63;;;4.22;97.61
60832;BME280;46665;51.558;-0.448;2023-03-03T07:36:25;102323.28;;;4.25;97.96
60832;BME280;46665;51.558;-0.448;2023-03-03T07:39:37;102319.38;;;4.27;97.33
60832;BME280;46665;51.558;-0.448;2023-03-03T07:45:28;102328.09;;;4.29;97.57
60832;BME280;46665;51.558;-0.448;2023-03-03T07:51:21;102326.03;;;4.31;97.37
60832;BME280;46665;51.558;-0.448;2023-03-03T07:54:28;102335.19;;;4.37;97.90
60832;BME280;46665;51.558;-0.448;2023-03-03T08:03:15;102350.72;;;4.35;97.81
60832;BME280;46665;51.558;-0.448;2023-03-03T08:06:48;102347.41;;;4.33;97.02
60832;BME280;46665;51.558;-0.448;2023-03-03T08:09:26;102352.84;;;4.40;97.15
60832;BME280;46665;51.558;-0.448;2023-03-03T08:15:27;102353.66;;;4.40;95.36
60832;BME280;46665;51.558;-0.448;2023-03-03T08:18:22;102359.09;;;4.47;95.29
60832;BME280;46665;51.558;-0.448;2023-03-03T08:21:10;102364.09;;;4.50;95.73
60832;BME280;46665;51.558;-0.448;2023-03-03T08:23:55;102371.34;;;4.49;94.25
60832;BME280;46665;51.558;-0.448;2023-03-03T08:26:39;102366.78;;;4.50;93.63
60832;BME280;46665;51.558;-0.448;2023-03-03T08:29:23;102364.31;;;4.55;94.22
60832;BME280;46665;51.558;-0.448;2023-03-03T08:32:07;102358.50;;;4.51;93.60
60832;BME280;46665;51.558;-0.448;2023-03-03T08:34:51;102367.47;;;4.59;93.98
60832;BME280;46665;51.558;-0.448;2023-03-03T08:37:35;102376.16;;;4.61;92.57
60832;BME280;46665;51.558;-0.448;2023-03-03T08:40:19;102375.81;;;4.64;92.16
60832;BME280;46665;51.558;-0.448;2023-03-03T08:43:03;102371.00;;;4.66;92.36
60832;BME280;46665;51.558;-0.448;2023-03-03T08:45:48;102377.88;;;4.68;92.16
60832;BME280;46665;51.558;-0.448;2023-03-03T08:48:33;102373.13;;;4.70;91.42
60832;BME280;46665;51.558;-0.448;2023-03-03T08:51:17;102377.28;;;4.73;91.74
60832;BME280;46665;51.558;-0.448;2023-03-03T08:54:01;102373.34;;;4.75;91.68
60832;BME280;46665;51.558;-0.448;2023-03-03T08:56:45;102375.66;;;4.78;90.93
60832;BME280;46665;51.558;-0.448;2023-03-03T08:59:29;102361.13;;;4.80;91.01
60832;BME280;46665;51.558;-0.448;2023-03-03T09:02:13;102369.22;;;4.80;90.50
60832;BME280;46665;51.558;-0.448;2023-03-03T09:04:58;102370.69;;;4.82;89.96
60832;BME280;46665;51.558;-0.448;2023-03-03T09:07:43;102372.34;;;4.83;89.45
60832;BME280;46665;51.558;-0.448;2023-03-03T09:10:28;102383.38;;;4.88;89.13
60832;BME280;46665;51.558;-0.448;2023-03-03T09:13:16;102375.69;;;4.85;88.23
60832;BME280;46665;51.558;-0.448;2023-03-03T09:16:10;102382.34;;;4.89;87.93
60832;BME280;46665;51.558;-0.448;2023-03-03T09:18:57;102396.47;;;4.91;88.57
60832;BME280;46665;51.558;-0.448;2023-03-03T09:21:41;102386.94;;;4.95;88.46
60832;BME280;46665;51.558;-0.448;2023-03-03T09:24:27;102384.88;;;4.97;89.14
60832;BME280;46665;51.558;-0.448;2023-03-03T09:27:28;102385.06;;;4.96;87.95
60832;BME280;46665;51.558;-0.448;2023-03-03T09:33:45;102397.13;;;5.00;86.82
60832;BME280;46665;51.558;-0.448;2023-03-03T09:36:35;102397.97;;;5.00;86.63
60832;BME280;46665;51.558;-0.448;2023-03-03T09:39:22;102392.38;;;5.02;85.99
60832;BME280;46665;51.558;-0.448;2023-03-03T09:54:21;102406.78;;;5.22;85.15
60832;BME280;46665;51.558;-0.448;2023-03-03T09:57:16;102408.84;;;5.20;83.90
60832;BME280;46665;51.558;-0.448;2023-03-03T10:00:21;102408.84;;;5.20;83.60
60832;BME280;46665;51.558;-0.448;2023-03-03T10:03:33;102411.56;;;5.27;84.30
60832;BME280;46665;51.558;-0.448;2023-03-03T10:06:47;102416.75;;;5.29;82.95
60832;BME280;46665;51.558;-0.448;2023-03-03T10:09:45;102419.66;;;5.34;82.96
60832;BME280;46665;51.558;-0.448;2023-03-03T10:24:26;102424.09;;;5.48;82.05
60832;BME280;46665;51.558;-0.448;2023-03-03T10:30:39;102427.00;;;5.53;81.38
60832;BME280;46665;51.558;-0.448;2023-03-03T10:36:35;102427.44;;;5.63;81.79
60832;BME280;46665;51.558;-0.448;2023-03-03T10:42:38;102432.03;;;5.76;80.72
60832;BME280;46665;51.558;-0.448;2023-03-03T10:45:44;102432.47;;;5.80;79.82
60832;BME280;46665;51.558;-0.448;2023-03-03T10:49:25;102442.44;;;5.86;79.68
60832;BME280;46665;51.558;-0.448;2023-03-03T10:55:05;102418.41;;;5.98;79.32
60832;BME280;46665;51.558;-0.448;2023-03-03T11:06:25;102429.19;;;6.24;75.87
60832;BME280;46665;51.558;-0.448;2023-03-03T11:12:47;102441.91;;;6.31;75.14
60832;BME280;46665;51.558;-0.448;2023-03-03T11:21:59;102448.75;;;6.40;73.75
60832;BME280;46665;51.558;-0.448;2023-03-03T11:24:54;102447.50;;;6.42;72.03
60832;BME280;46665;51.558;-0.448;2023-03-03T11:28:06;102447.28;;;6.37;72.11
60832;BME280;46665;51.558;-0.448;2023-03-03T11:31:21;102447.31;;;6.31;71.60
60832;BME280;46665;51.558;-0.448;2023-03-03T11:37:48;102445.22;;;6.19;73.16
60832;BME280;46665;51.558;-0.448;2023-03-03T11:40:50;102453.31;;;6.19;74.52
60832;BME280;46665;51.558;-0.448;2023-03-03T11:43:45;102455.63;;;6.16;76.32
60832;BME280;46665;51.558;-0.448;2023-03-03T11:46:39;102448.75;;;6.13;77.79
60832;BME280;46665;51.558;-0.448;2023-03-03T11:52:24;102445.63;;;6.16;79.26
60832;BME280;46665;51.558;-0.448;2023-03-03T11:55:18;102441.88;;;6.24;80.00
60832;BME280;46665;51.558;-0.448;2023-03-03T11:58:19;102442.50;;;6.26;80.06
60832;BME280;46665;51.558;-0.448;2023-03-03T12:01:16;102442.50;;;6.26;79.60
60832;BME280;46665;51.558;-0.448;2023-03-03T12:04:06;102439.19;;;6.31;79.17
60832;BME280;46665;51.558;-0.448;2023-03-03T12:16:38;102439.38;;;6.22;78.70
60832;BME280;46665;51.558;-0.448;2023-03-03T12:22:51;102428.78;;;6.14;80.25
60832;BME280;46665;51.558;-0.448;2023-03-03T12:25:46;102433.56;;;6.12;79.37
60832;BME280;46665;51.558;-0.448;2023-03-03T12:28:57;102419.84;;;6.07;79.54
60832;BME280;46665;51.558;-0.448;2023-03-03T12:31:58;102428.75;;;6.07;80.15
60832;BME280;46665;51.558;-0.448;2023-03-03T12:34:50;102422.97;;;6.04;79.93
60832;BME280;46665;51.558;-0.448;2023-03-03T12:38:20;102420.69;;;6.01;79.13
60832;BME280;46665;51.558;-0.448;2023-03-03T12:49:43;102414.66;;;6.05;79.17
60832;BME280;46665;51.558;-0.448;2023-03-03T12:52:39;102414.66;;;6.05;78.79
60832;BME280;46665;51.558;-0.448;2023-03-03T12:58:55;102411.94;;;6.12;78.48
60832;BME280;46665;51.558;-0.448;2023-03-03T13:02:03;102413.63;;;6.13;77.74
60832;BME280;46665;51.558;-0.448;2023-03-03T13:13:28;102412.56;;;6.21;77.33
60832;BME280;46665;51.558;-0.448;2023-03-03T13:16:22;102415.47;;;6.19;77.57
60832;BME280;46665;51.558;-0.448;2023-03-03T13:19:16;102418.59;;;6.16;79.07
60832;BME280;46665;51.558;-0.448;2023-03-03T13:22:15;102419.03;;;6.13;79.61
60832;BME280;46665;51.558;-0.448;2023-03-03T13:28:10;102412.34;;;6.02;80.89
60832;BME280;46665;51.558;-0.448;2023-03-03T13:31:02;102410.06;;;5.99;81.12
60832;BME280;46665;51.558;-0.448;2023-03-03T13:33:58;102409.66;;;5.96;82.51
60832;BME280;46665;51.558;-0.448;2023-03-03T13:36:55;102401.97;;;5.99;82.12
60832;BME280;46665;51.558;-0.448;2023-03-03T13:43:00;102409.03;;;6.07;82.10
60832;BME280;46665;51.558;-0.448;2023-03-03T13:52:01;102407.16;;;6.01;82.96
60832;BME280;46665;51.558;-0.448;2023-03-03T14:01:00;102397.16;;;5.95;83.24
60832;BME280;46665;51.558;-0.448;2023-03-03T14:04:03;102400.72;;;5.95;82.62
60832;BME280;46665;51.558;-0.448;2023-03-03T14:06:54;102405.28;;;5.95;81.81
60832;BME280;46665;51.558;-0.448;2023-03-03T14:09:55;102401.75;;;5.94;81.22
60832;BME280;46665;51.558;-0.448;2023-03-03T14:13:05;102395.72;;;5.99;81.43
60832;BME280;46665;51.558;-0.448;2023-03-03T14:16:04;102389.91;;;6.02;80.26
60832;BME280;46665;51.558;-0.448;2023-03-03T14:18:56;102402.59;;;6.08;80.94
60832;BME280;46665;51.558;-0.448;2023-03-03T14:24:26;102384.47;;;6.15;80.16
60832;BME280;46665;51.558;-0.448;2023-03-03T14:27:23;102392.19;;;6.18;79.72
60832;BME280;46665;51.558;-0.448;2023-03-03T14:38:44;102380.34;;;6.19;77.52
60832;BME280;46665;51.558;-0.448;2023-03-03T14:41:39;102388.03;;;6.16;76.19
60832;BME280;46665;51.558;-0.448;2023-03-03T14:44:53;102384.72;;;6.14;75.03
60832;BME280;46665;51.558;-0.448;2023-03-03T14:47:43;102378.25;;;6.15;75.40
60832;BME280;46665;51.558;-0.448;2023-03-03T14:56:36;102372.66;;;6.16;74.96
60832;BME280;46665;51.558;-0.448;2023-03-03T14:59:22;102370.38;;;6.13;75.33
60832;BME280;46665;51.558;-0.448;2023-03-03T15:05:22;102362.69;;;6.03;80.22
60832;BME280;46665;51.558;-0.448;2023-03-03T15:08:09;102363.31;;;6.05;82.82
60832;BME280;46665;51.558;-0.448;2023-03-03T15:10:53;102360.78;;;5.97;83.00
60832;BME280;46665;51.558;-0.448;2023-03-03T15:13:37;102358.09;;;5.97;84.88
60832;BME280;46665;51.558;-0.448;2023-03-03T15:16:23;102351.03;;;5.96;84.97
60832;BME280;46665;51.558;-0.448;2023-03-03T15:22:20;102353.09;;;5.88;85.88
60832;BME280;46665;51.558;-0.448;2023-03-03T15:25:32;102344.38;;;5.85;86.31
60832;BME280;46665;51.558;-0.448;2023-03-03T15:43:35;102347.50;;;5.96;87.71
60832;BME280;46665;51.558;-0.448;2023-03-03T15:46:26;102341.28;;;5.95;87.95
60832;BME280;46665;51.558;-0.448;2023-03-03T15:49:30;102334.41;;;5.99;87.74
60832;BME280;46665;51.558;-0.448;2023-03-03T15:52:27;102334.19;;;6.01;88.64
60832;BME280;46665;51.558;-0.448;2023-03-03T15:55:33;102335.44;;;6.05;88.69
60832;BME280;46665;51.558;-0.448;2023-03-03T15:58:46;102331.91;;;6.11;88.49
60832;BME280;46665;51.558;-0.448;2023-03-03T16:01:34;102331.28;;;6.02;87.74
60832;BME280;46665;51.558;-0.448;2023-03-03T16:04:28;102329.22;;;5.98;87.27
60832;BME280;46665;51.558;-0.448;2023-03-03T16:13:37;102334.19;;;5.88;88.45
60832;BME280;46665;51.558;-0.448;2023-03-03T16:22:18;102336.47;;;5.91;88.31
60832;BME280;46665;51.558;-0.448;2023-03-03T16:28:17;102342.88;;;5.90;88.23
60832;BME280;46665;51.558;-0.448;2023-03-03T16:31:10;102339.16;;;5.91;88.11
60832;BME280;46665;51.558;-0.448;2023-03-03T16:34:20;102333.53;;;5.92;88.37
60832;BME280;46665;51.558;-0.448;2023-03-03T16:45:58;102338.13;;;5.92;87.72
60832;BME280;46665;51.558;-0.448;2023-03-03T16:52:11;102337.09;;;5.86;87.64
60832;BME280;46665;51.558;-0.448;2023-03-03T17:01:16;102340.63;;;5.80;86.18
60832;BME280;46665;51.558;-0.448;2023-03-03T17:04:11;102345.16;;;5.79;86.00
60832;BME280;46665;51.558;-0.448;2023-03-03T17:07:11;102346.03;;;5.80;86.62
60832;BME280;46665;51.558;-0.448;2023-03-03T17:27:04;102372.19;;;5.66;86.08
60832;BME280;46665;51.558;-0.448;2023-03-03T17:35:48;102379.25;;;5.60;88.07
60832;BME280;46665;51.558;-0.448;2023-03-03T17:39:46;102380.06;;;5.61;87.59
60832;BME280;46665;51.558;-0.448;2023-03-03T17:45:12;102375.88;;;5.52;88.13
60832;BME280;46665;51.558;-0.448;2023-03-03T17:57:19;102374.22;;;5.44;89.95
60832;BME280;46665;51.558;-0.448;2023-03-03T18:12:35;102390.38;;;5.31;93.08
60832;BME280;46665;51.558;-0.448;2023-03-03T18:19:03;102391.22;;;5.25;94.21
60832;BME280;46665;51.558;-0.448;2023-03-03T18:24:58;102398.88;;;5.21;94.65
60832;BME280;46665;51.558;-0.448;2023-03-03T18:27:44;102405.31;;;5.20;95.01
60832;BME280;46665;51.558;-0.448;2023-03-03T18:30:30;102400.91;;;5.19;95.44
60832;BME280;46665;51.558;-0.448;2023-03-03T18:39:14;102410.66;;;5.13;96.03
60832;BME280;46665;51.558;-0.448;2023-03-03T18:44:54;102418.97;;;5.12;96.07
60832;BME280;46665;51.558;-0.448;2023-03-03T18:50:49;102420.41;;;5.08;97.16
60832;BME280;46665;51.558;-0.448;2023-03-03T18:53:35;102421.44;;;5.07;97.26
60832;BME280;46665;51.558;-0.448;2023-03-03T18:59:57;102424.34;;;5.05;97.69
60832;BME280;46665;51.558;-0.448;2023-03-03T19:02:55;102423.09;;;5.08;96.23
60832;BME280;46665;51.558;-0.448;2023-03-03T19:05:48;102435.38;;;5.10;95.89
60832;BME280;46665;51.558;-0.448;2023-03-03T19:08:52;102434.53;;;5.10;95.87
60832;BME280;46665;51.558;-0.448;2023-03-03T19:11:49;102430.38;;;5.07;95.55
60832;BME280;46665;51.558;-0.448;2023-03-03T19:14:37;102439.94;;;5.10;95.69
60832;BME280;46665;51.558;-0.448;2023-03-03T19:20:16;102433.72;;;5.09;95.43
60832;BME280;46665;51.558;-0.448;2023-03-03T19:23:07;102437.22;;;5.10;95.53
60832;BME280;46665;51.558;-0.448;2023-03-03T19:26:25;102438.47;;;5.14;95.56
60832;BME280;46665;51.558;-0.448;2023-03-03T19:35:26;102432.28;;;5.20;93.26
60832;BME280;46665;51.558;-0.448;2023-03-03T19:38:30;102432.94;;;5.22;92.63